SILO ALERT LOG
| Silo ID | Alert Type | Alert Message | Silo Type | Points | Depth (mm) | Strength | Temperature (°C) | Humidity (%) | Height (mm) | Volume (㎥) | Weight (t) | Flag | Time |
|---|---|---|---|---|---|---|---|---|---|---|---|---|---|
| DJSSD04 | Temperature | 온도센서 상태 이상 | 평 | 0 | 8200 | 0 | -999 | -999 | -120 | -16.702 | 0 | 31 | 2024-01-10 19:39:33.000 |
| DJSSD11 | Temperature | 온도센서 측정값이 0도 미만 | 호퍼 | 442 | 7409 | 149 | -3.7 | 71 | 3820 | 28.48 | 15.522 | 11 | 2024-01-10 19:39:32.000 |
| DJSSD09 | Temperature | 온도센서 측정값이 0도 미만 | 평 | 121 | 3001 | 2985 | -45.4 | 0 | 4678 | 651.104 | 411.628 | 11 | 2024-01-10 19:39:31.000 |
| DJSAD18 | Humidity | 습도센서 측정값이 80% 초과 | 평 | 124 | 1374 | 5799 | 4.7 | 80.8 | 6205 | 617.963 | 390.676 | 11 | 2024-01-10 19:39:31.000 |
| DJHNR13 | Temperature | 온도센서 측정값이 0도 미만 | 호퍼 | 136 | 2379 | 3267 | -0.9 | 69.8 | 8000 | 118.614 | 74.988 | 0 | 2024-01-10 19:39:30.000 |
| DJHNR14 | Temperature | 온도센서 측정값이 0도 미만 | 호퍼 | 36 | 2785 | 4108 | -1.8 | 72 | 7594 | 109.868 | 69.458 | 11 | 2024-01-10 19:39:30.000 |
| DJSAD17 | Humidity | 습도센서 측정값이 80% 초과 | 평 | 444 | 3128 | 5135 | 4 | 80.2 | 4451 | 443.319 | 280.266 | 0 | 2024-01-10 19:39:30.000 |
| DJSAD16 | Humidity | 습도센서 측정값이 80% 초과 | 평 | 89 | 6543 | 3423 | 4.3 | 80.3 | 1036 | 103.197 | 65.241 | 11 | 2024-01-10 19:39:30.000 |
| DJSSD12 | Temperature | 온도센서 상태 이상 | 호퍼 | 0 | 11350 | 0 | -999 | -999 | -120 | 0 | 0 | 31 | 2024-01-10 19:39:25.000 |
| DJHNR03 | Temperature | 온도센서 상태 이상 | 호퍼 | 0 | 15500 | 0 | -999 | -999 | -119 | 0 | 0 | 31 | 2024-01-10 19:39:24.000 |
| DJHNR12 | Temperature | 온도센서 측정값이 0도 미만 | 호퍼 | 0 | 10500 | 0 | -2.3 | 81.6 | -120 | 0 | 0 | 31 | 2024-01-10 19:39:23.000 |
| DJHNR12 | Humidity | 습도센서 측정값이 80% 초과 | 호퍼 | 0 | 10500 | 0 | -2.3 | 81.6 | -120 | 0 | 0 | 31 | 2024-01-10 19:39:23.000 |
| DJSAD03 | Humidity | 습도센서 측정값이 80% 초과 | 평 | 446 | 1665 | 6101 | 2.8 | 84.5 | 7114 | 294.496 | 186.18 | 0 | 2024-01-10 18:39:40.000 |
| DJSAD01 | Humidity | 습도센서 측정값이 80% 초과 | 평 | 480 | 1532 | 7340 | 1.4 | 88.2 | 7247 | 300.001 | 189.661 | 0 | 2024-01-10 18:39:39.000 |
| DJSAD07 | Humidity | 습도센서 측정값이 80% 초과 | 평 | 225 | 1353 | 1772 | 5 | 83.5 | 6226 | 885.967 | 550 | 11 | 2024-01-10 18:39:38.000 |
| DJSAD02 | Humidity | 습도센서 측정값이 80% 초과 | 평 | 379 | 1138 | 4287 | 2.4 | 87.4 | 7641 | 316.343 | 199.992 | 11 | 2024-01-10 18:39:38.000 |
| DJSAD08 | Humidity | 습도센서 측정값이 80% 초과 | 평 | 0 | 7700 | 3846 | 10.3 | 83.9 | -120 | -17.075 | 0 | 12 | 2024-01-10 18:39:37.000 |
| DJSAD12 | Humidity | 습도센서 측정값이 80% 초과 | 평 | 0 | 7700 | 0 | 3.2 | 86.2 | -120 | -17.075 | 0 | 31 | 2024-01-10 18:39:33.000 |
| DJHNR01 | Humidity | 습도센서 측정값이 80% 초과 | 호퍼 | 471 | 4307 | 5047 | 4.8 | 99.9 | 11072 | 472.84 | 298.929 | 13 | 2024-01-10 18:39:33.000 |
| DJSSD05 | Temperature | 온도센서 측정값이 0도 미만 | 평 | 845 | 2555 | 4861 | -45.4 | 43.6 | 5524 | 768.881 | 486.087 | 0 | 2024-01-10 18:39:33.000 |
[첫 페이지] [10014] [10015] [10016] [10017] 10018 [10019] [10020] [10021] [10022] [마지막 페이지]